sensor_id;sensor_type;location;lat;lon;timestamp;P1;durP1;ratioP1;P2;durP2;ratioP2
14704;SDS011;7442;50.840;3.396;2022-07-29T00:01:09;1.85;;;1.02;;
14704;SDS011;7442;50.840;3.396;2022-07-29T00:03:58;3.55;;;1.12;;
14704;SDS011;7442;50.840;3.396;2022-07-29T00:06:44;3.10;;;1.07;;
14704;SDS011;7442;50.840;3.396;2022-07-29T00:09:31;2.08;;;1.02;;
14704;SDS011;7442;50.840;3.396;2022-07-29T00:12:19;0.98;;;0.90;;
14704;SDS011;7442;50.840;3.396;2022-07-29T00:15:07;1.50;;;1.07;;
14704;SDS011;7442;50.840;3.396;2022-07-29T00:17:54;1.62;;;1.10;;
14704;SDS011;7442;50.840;3.396;2022-07-29T00:20:47;2.02;;;1.00;;
14704;SDS011;7442;50.840;3.396;2022-07-29T00:23:33;1.87;;;1.00;;
14704;SDS011;7442;50.840;3.396;2022-07-29T00:26:19;2.30;;;0.90;;
14704;SDS011;7442;50.840;3.396;2022-07-29T00:29:06;3.22;;;1.20;;
14704;SDS011;7442;50.840;3.396;2022-07-29T00:31:52;1.47;;;0.80;;
14704;SDS011;7442;50.840;3.396;2022-07-29T00:34:39;1.40;;;1.00;;
14704;SDS011;7442;50.840;3.396;2022-07-29T00:37:43;2.77;;;1.00;;
14704;SDS011;7442;50.840;3.396;2022-07-29T00:40:30;1.42;;;1.10;;
14704;SDS011;7442;50.840;3.396;2022-07-29T00:43:23;2.27;;;1.30;;
14704;SDS011;7442;50.840;3.396;2022-07-29T00:46:11;1.45;;;1.22;;
14704;SDS011;7442;50.840;3.396;2022-07-29T00:48:57;1.42;;;1.07;;
14704;SDS011;7442;50.840;3.396;2022-07-29T00:51:44;2.17;;;1.20;;
14704;SDS011;7442;50.840;3.396;2022-07-29T00:54:31;1.10;;;0.98;;
14704;SDS011;7442;50.840;3.396;2022-07-29T00:57:18;2.75;;;1.30;;
14704;SDS011;7442;50.840;3.396;2022-07-29T01:00:06;1.42;;;1.20;;
14704;SDS011;7442;50.840;3.396;2022-07-29T01:02:54;1.55;;;0.90;;
14704;SDS011;7442;50.840;3.396;2022-07-29T01:05:41;1.27;;;0.85;;
14704;SDS011;7442;50.840;3.396;2022-07-29T01:08:31;1.70;;;1.20;;
14704;SDS011;7442;50.840;3.396;2022-07-29T01:11:19;2.20;;;0.80;;
14704;SDS011;7442;50.840;3.396;2022-07-29T01:14:06;1.25;;;1.10;;
14704;SDS011;7442;50.840;3.396;2022-07-29T01:16:59;1.07;;;0.98;;
14704;SDS011;7442;50.840;3.396;2022-07-29T01:32:01;2.60;;;1.10;;
14704;SDS011;7442;50.840;3.396;2022-07-29T01:37:55;1.00;;;0.90;;
14704;SDS011;7442;50.840;3.396;2022-07-29T01:40:47;1.37;;;1.10;;
14704;SDS011;7442;50.840;3.396;2022-07-29T01:43:44;1.65;;;1.00;;
14704;SDS011;7442;50.840;3.396;2022-07-29T01:46:34;1.10;;;1.00;;
14704;SDS011;7442;50.840;3.396;2022-07-29T01:49:34;1.17;;;1.00;;
14704;SDS011;7442;50.840;3.396;2022-07-29T01:55:24;0.98;;;0.98;;
14704;SDS011;7442;50.840;3.396;2022-07-29T01:58:12;1.90;;;1.20;;
14704;SDS011;7442;50.840;3.396;2022-07-29T02:01:00;1.15;;;0.98;;
14704;SDS011;7442;50.840;3.396;2022-07-29T02:03:48;1.22;;;1.00;;
14704;SDS011;7442;50.840;3.396;2022-07-29T02:06:40;1.32;;;0.93;;
14704;SDS011;7442;50.840;3.396;2022-07-29T02:09:28;1.45;;;1.00;;
14704;SDS011;7442;50.840;3.396;2022-07-29T02:12:18;1.87;;;1.05;;
14704;SDS011;7442;50.840;3.396;2022-07-29T02:15:06;1.40;;;1.15;;
14704;SDS011;7442;50.840;3.396;2022-07-29T02:18:05;1.42;;;1.12;;
14704;SDS011;7442;50.840;3.396;2022-07-29T02:20:48;1.15;;;1.00;;
14704;SDS011;7442;50.840;3.396;2022-07-29T02:23:37;1.50;;;0.93;;
14704;SDS011;7442;50.840;3.396;2022-07-29T02:26:24;2.00;;;1.17;;
14704;SDS011;7442;50.840;3.396;2022-07-29T02:29:13;1.07;;;0.98;;
14704;SDS011;7442;50.840;3.396;2022-07-29T02:32:02;1.22;;;0.90;;
14704;SDS011;7442;50.840;3.396;2022-07-29T02:34:50;0.98;;;0.88;;
14704;SDS011;7442;50.840;3.396;2022-07-29T02:37:45;1.07;;;0.90;;
14704;SDS011;7442;50.840;3.396;2022-07-29T02:40:37;2.00;;;1.00;;
14704;SDS011;7442;50.840;3.396;2022-07-29T02:43:26;0.95;;;0.90;;
14704;SDS011;7442;50.840;3.396;2022-07-29T02:46:19;2.37;;;0.98;;
14704;SDS011;7442;50.840;3.396;2022-07-29T02:52:31;2.40;;;0.88;;
14704;SDS011;7442;50.840;3.396;2022-07-29T02:55:37;1.50;;;1.10;;
14704;SDS011;7442;50.840;3.396;2022-07-29T02:58:38;3.35;;;1.25;;
14704;SDS011;7442;50.840;3.396;2022-07-29T03:01:25;1.45;;;0.95;;
14704;SDS011;7442;50.840;3.396;2022-07-29T03:04:14;1.77;;;1.37;;
14704;SDS011;7442;50.840;3.396;2022-07-29T03:07:06;1.45;;;1.10;;
14704;SDS011;7442;50.840;3.396;2022-07-29T03:09:54;1.42;;;1.12;;
14704;SDS011;7442;50.840;3.396;2022-07-29T03:12:41;1.37;;;0.93;;
14704;SDS011;7442;50.840;3.396;2022-07-29T03:15:28;1.10;;;0.93;;
14704;SDS011;7442;50.840;3.396;2022-07-29T03:18:16;1.22;;;1.10;;
14704;SDS011;7442;50.840;3.396;2022-07-29T03:21:03;1.20;;;1.10;;
14704;SDS011;7442;50.840;3.396;2022-07-29T03:23:49;1.35;;;1.05;;
14704;SDS011;7442;50.840;3.396;2022-07-29T03:26:36;1.32;;;1.12;;
14704;SDS011;7442;50.840;3.396;2022-07-29T03:29:23;1.27;;;1.10;;
14704;SDS011;7442;50.840;3.396;2022-07-29T03:32:10;1.50;;;0.80;;
14704;SDS011;7442;50.840;3.396;2022-07-29T03:34:57;1.62;;;1.12;;
14704;SDS011;7442;50.840;3.396;2022-07-29T03:37:50;0.95;;;0.95;;
14704;SDS011;7442;50.840;3.396;2022-07-29T03:40:49;1.22;;;0.90;;
14704;SDS011;7442;50.840;3.396;2022-07-29T03:43:40;1.17;;;1.07;;
14704;SDS011;7442;50.840;3.396;2022-07-29T03:46:28;1.00;;;0.90;;
14704;SDS011;7442;50.840;3.396;2022-07-29T03:49:17;1.10;;;0.85;;
14704;SDS011;7442;50.840;3.396;2022-07-29T03:52:05;1.15;;;1.05;;
14704;SDS011;7442;50.840;3.396;2022-07-29T03:54:52;1.95;;;0.90;;
14704;SDS011;7442;50.840;3.396;2022-07-29T03:57:39;1.62;;;1.20;;
14704;SDS011;7442;50.840;3.396;2022-07-29T04:00:30;1.40;;;1.10;;
14704;SDS011;7442;50.840;3.396;2022-07-29T04:03:18;1.05;;;0.95;;
14704;SDS011;7442;50.840;3.396;2022-07-29T04:06:06;1.07;;;0.95;;
14704;SDS011;7442;50.840;3.396;2022-07-29T04:08:53;0.80;;;0.80;;
14704;SDS011;7442;50.840;3.396;2022-07-29T04:11:39;1.40;;;1.17;;
14704;SDS011;7442;50.840;3.396;2022-07-29T04:14:26;1.17;;;1.00;;
14704;SDS011;7442;50.840;3.396;2022-07-29T04:17:13;1.22;;;0.90;;
14704;SDS011;7442;50.840;3.396;2022-07-29T04:19:59;1.20;;;1.10;;
14704;SDS011;7442;50.840;3.396;2022-07-29T04:22:46;2.02;;;1.20;;
14704;SDS011;7442;50.840;3.396;2022-07-29T04:25:39;1.00;;;0.90;;
14704;SDS011;7442;50.840;3.396;2022-07-29T04:28:25;1.07;;;0.98;;
14704;SDS011;7442;50.840;3.396;2022-07-29T04:31:12;2.27;;;1.15;;
14704;SDS011;7442;50.840;3.396;2022-07-29T04:33:59;1.17;;;1.07;;
14704;SDS011;7442;50.840;3.396;2022-07-29T04:36:46;1.25;;;1.07;;
14704;SDS011;7442;50.840;3.396;2022-07-29T04:39:32;1.32;;;1.02;;
14704;SDS011;7442;50.840;3.396;2022-07-29T04:42:19;1.45;;;1.10;;
14704;SDS011;7442;50.840;3.396;2022-07-29T04:45:06;1.95;;;1.02;;
14704;SDS011;7442;50.840;3.396;2022-07-29T04:47:52;1.25;;;1.15;;
14704;SDS011;7442;50.840;3.396;2022-07-29T04:50:39;1.10;;;1.00;;
14704;SDS011;7442;50.840;3.396;2022-07-29T04:53:26;0.88;;;0.82;;
14704;SDS011;7442;50.840;3.396;2022-07-29T04:56:12;1.52;;;1.10;;
14704;SDS011;7442;50.840;3.396;2022-07-29T04:58:59;1.50;;;1.32;;
14704;SDS011;7442;50.840;3.396;2022-07-29T05:01:45;1.10;;;0.93;;
14704;SDS011;7442;50.840;3.396;2022-07-29T05:04:31;2.25;;;1.15;;
14704;SDS011;7442;50.840;3.396;2022-07-29T05:07:18;3.42;;;1.52;;
14704;SDS011;7442;50.840;3.396;2022-07-29T05:10:04;1.75;;;1.47;;
14704;SDS011;7442;50.840;3.396;2022-07-29T05:12:51;1.12;;;0.93;;
14704;SDS011;7442;50.840;3.396;2022-07-29T05:15:37;1.12;;;1.02;;
14704;SDS011;7442;50.840;3.396;2022-07-29T05:18:24;1.10;;;1.00;;
14704;SDS011;7442;50.840;3.396;2022-07-29T05:21:11;1.72;;;0.90;;
14704;SDS011;7442;50.840;3.396;2022-07-29T05:23:58;1.50;;;1.07;;
14704;SDS011;7442;50.840;3.396;2022-07-29T05:26:46;1.12;;;1.02;;
14704;SDS011;7442;50.840;3.396;2022-07-29T05:29:40;1.00;;;0.85;;
14704;SDS011;7442;50.840;3.396;2022-07-29T05:32:30;0.98;;;0.88;;
14704;SDS011;7442;50.840;3.396;2022-07-29T05:35:16;1.32;;;0.95;;
14704;SDS011;7442;50.840;3.396;2022-07-29T05:38:03;2.05;;;1.00;;
14704;SDS011;7442;50.840;3.396;2022-07-29T05:40:49;1.95;;;1.30;;
14704;SDS011;7442;50.840;3.396;2022-07-29T05:43:35;2.40;;;1.12;;
14704;SDS011;7442;50.840;3.396;2022-07-29T05:46:22;1.70;;;1.20;;
14704;SDS011;7442;50.840;3.396;2022-07-29T05:49:08;2.08;;;1.17;;
14704;SDS011;7442;50.840;3.396;2022-07-29T05:51:54;1.35;;;1.00;;
14704;SDS011;7442;50.840;3.396;2022-07-29T05:54:41;1.17;;;1.07;;
14704;SDS011;7442;50.840;3.396;2022-07-29T05:57:29;1.45;;;1.35;;
14704;SDS011;7442;50.840;3.396;2022-07-29T06:00:16;1.47;;;1.20;;
14704;SDS011;7442;50.840;3.396;2022-07-29T06:03:02;1.25;;;1.15;;
14704;SDS011;7442;50.840;3.396;2022-07-29T06:05:56;1.27;;;0.90;;
14704;SDS011;7442;50.840;3.396;2022-07-29T06:11:08;1.12;;;1.02;;
14704;SDS011;7442;50.840;3.396;2022-07-29T06:13:55;1.45;;;1.10;;
14704;SDS011;7442;50.840;3.396;2022-07-29T06:16:41;1.25;;;1.00;;
14704;SDS011;7442;50.840;3.396;2022-07-29T06:19:28;1.15;;;1.05;;
14704;SDS011;7442;50.840;3.396;2022-07-29T06:22:21;1.15;;;0.88;;
14704;SDS011;7442;50.840;3.396;2022-07-29T06:25:09;1.12;;;1.02;;
14704;SDS011;7442;50.840;3.396;2022-07-29T06:27:57;1.15;;;1.05;;
14704;SDS011;7442;50.840;3.396;2022-07-29T06:30:43;1.32;;;1.20;;
14704;SDS011;7442;50.840;3.396;2022-07-29T06:33:30;2.33;;;1.10;;
14704;SDS011;7442;50.840;3.396;2022-07-29T06:36:16;1.40;;;1.10;;
14704;SDS011;7442;50.840;3.396;2022-07-29T06:39:06;1.75;;;1.15;;
14704;SDS011;7442;50.840;3.396;2022-07-29T06:41:53;2.08;;;1.15;;
14704;SDS011;7442;50.840;3.396;2022-07-29T06:44:40;0.80;;;0.80;;
14704;SDS011;7442;50.840;3.396;2022-07-29T06:47:27;1.32;;;1.12;;
14704;SDS011;7442;50.840;3.396;2022-07-29T06:50:13;2.72;;;1.80;;
14704;SDS011;7442;50.840;3.396;2022-07-29T06:53:00;3.42;;;2.77;;
14704;SDS011;7442;50.840;3.396;2022-07-29T06:55:46;10.85;;;3.50;;
14704;SDS011;7442;50.840;3.396;2022-07-29T06:58:32;4.83;;;3.08;;
14704;SDS011;7442;50.840;3.396;2022-07-29T07:01:20;7.95;;;3.37;;
14704;SDS011;7442;50.840;3.396;2022-07-29T07:04:06;8.35;;;3.50;;
14704;SDS011;7442;50.840;3.396;2022-07-29T07:06:54;8.60;;;3.10;;
14704;SDS011;7442;50.840;3.396;2022-07-29T07:09:41;7.58;;;3.58;;
14704;SDS011;7442;50.840;3.396;2022-07-29T07:12:27;9.05;;;3.30;;
14704;SDS011;7442;50.840;3.396;2022-07-29T07:15:13;8.83;;;3.65;;
14704;SDS011;7442;50.840;3.396;2022-07-29T07:18:00;8.75;;;3.70;;
14704;SDS011;7442;50.840;3.396;2022-07-29T07:20:46;9.75;;;3.72;;
14704;SDS011;7442;50.840;3.396;2022-07-29T07:23:32;9.38;;;3.87;;
14704;SDS011;7442;50.840;3.396;2022-07-29T07:26:20;9.55;;;3.25;;
14704;SDS011;7442;50.840;3.396;2022-07-29T07:29:06;7.97;;;3.27;;
14704;SDS011;7442;50.840;3.396;2022-07-29T07:31:53;8.45;;;3.42;;
14704;SDS011;7442;50.840;3.396;2022-07-29T07:34:39;8.80;;;3.35;;
14704;SDS011;7442;50.840;3.396;2022-07-29T07:37:33;4.47;;;3.17;;
14704;SDS011;7442;50.840;3.396;2022-07-29T07:40:19;5.80;;;2.95;;
14704;SDS011;7442;50.840;3.396;2022-07-29T07:43:06;6.72;;;3.20;;
14704;SDS011;7442;50.840;3.396;2022-07-29T07:45:54;7.90;;;3.67;;
14704;SDS011;7442;50.840;3.396;2022-07-29T07:48:42;10.08;;;3.20;;
14704;SDS011;7442;50.840;3.396;2022-07-29T07:51:28;7.95;;;3.02;;
14704;SDS011;7442;50.840;3.396;2022-07-29T07:54:15;9.45;;;3.15;;
14704;SDS011;7442;50.840;3.396;2022-07-29T07:57:02;7.42;;;3.35;;
14704;SDS011;7442;50.840;3.396;2022-07-29T07:59:48;7.00;;;2.72;;
14704;SDS011;7442;50.840;3.396;2022-07-29T08:02:35;6.75;;;2.65;;
14704;SDS011;7442;50.840;3.396;2022-07-29T08:05:21;5.50;;;3.58;;
14704;SDS011;7442;50.840;3.396;2022-07-29T08:08:07;10.25;;;3.35;;
14704;SDS011;7442;50.840;3.396;2022-07-29T08:10:54;6.37;;;3.45;;
14704;SDS011;7442;50.840;3.396;2022-07-29T08:13:41;10.08;;;3.20;;
14704;SDS011;7442;50.840;3.396;2022-07-29T08:16:28;8.05;;;3.02;;
14704;SDS011;7442;50.840;3.396;2022-07-29T08:19:15;7.50;;;2.90;;
14704;SDS011;7442;50.840;3.396;2022-07-29T08:22:01;8.78;;;3.83;;
14704;SDS011;7442;50.840;3.396;2022-07-29T08:24:47;6.10;;;3.83;;
14704;SDS011;7442;50.840;3.396;2022-07-29T08:27:40;10.03;;;4.05;;
14704;SDS011;7442;50.840;3.396;2022-07-29T08:30:27;9.43;;;3.42;;
14704;SDS011;7442;50.840;3.396;2022-07-29T08:33:13;11.12;;;3.67;;
14704;SDS011;7442;50.840;3.396;2022-07-29T08:36:00;7.25;;;2.80;;
14704;SDS011;7442;50.840;3.396;2022-07-29T08:38:47;7.00;;;3.70;;
14704;SDS011;7442;50.840;3.396;2022-07-29T08:41:34;12.30;;;4.75;;
14704;SDS011;7442;50.840;3.396;2022-07-29T08:44:21;10.13;;;3.72;;
14704;SDS011;7442;50.840;3.396;2022-07-29T08:47:08;12.00;;;4.08;;
14704;SDS011;7442;50.840;3.396;2022-07-29T08:49:55;14.70;;;4.25;;
14704;SDS011;7442;50.840;3.396;2022-07-29T08:52:42;12.43;;;4.08;;
14704;SDS011;7442;50.840;3.396;2022-07-29T08:55:29;12.78;;;4.95;;
14704;SDS011;7442;50.840;3.396;2022-07-29T08:58:16;16.62;;;4.20;;
14704;SDS011;7442;50.840;3.396;2022-07-29T09:01:04;12.10;;;4.40;;
14704;SDS011;7442;50.840;3.396;2022-07-29T09:03:51;15.32;;;5.53;;
14704;SDS011;7442;50.840;3.396;2022-07-29T09:06:49;16.20;;;4.60;;
14704;SDS011;7442;50.840;3.396;2022-07-29T09:09:37;16.50;;;4.30;;
14704;SDS011;7442;50.840;3.396;2022-07-29T09:12:29;11.65;;;4.12;;
14704;SDS011;7442;50.840;3.396;2022-07-29T09:15:16;11.28;;;4.30;;
14704;SDS011;7442;50.840;3.396;2022-07-29T09:18:03;8.93;;;3.80;;
14704;SDS011;7442;50.840;3.396;2022-07-29T09:20:54;13.28;;;3.87;;
14704;SDS011;7442;50.840;3.396;2022-07-29T09:26:53;9.00;;;3.90;;
14704;SDS011;7442;50.840;3.396;2022-07-29T09:29:40;14.13;;;3.37;;
14704;SDS011;7442;50.840;3.396;2022-07-29T09:32:28;6.78;;;2.72;;
14704;SDS011;7442;50.840;3.396;2022-07-29T09:35:15;5.22;;;2.80;;
14704;SDS011;7442;50.840;3.396;2022-07-29T09:38:09;5.47;;;2.83;;
14704;SDS011;7442;50.840;3.396;2022-07-29T09:41:00;9.35;;;3.05;;
14704;SDS011;7442;50.840;3.396;2022-07-29T09:43:57;10.98;;;3.08;;
14704;SDS011;7442;50.840;3.396;2022-07-29T09:46:53;6.17;;;2.42;;
14704;SDS011;7442;50.840;3.396;2022-07-29T09:49:57;7.60;;;2.50;;
14704;SDS011;7442;50.840;3.396;2022-07-29T09:52:48;6.78;;;2.47;;
14704;SDS011;7442;50.840;3.396;2022-07-29T09:55:52;4.28;;;2.40;;
14704;SDS011;7442;50.840;3.396;2022-07-29T09:58:35;11.78;;;2.72;;
14704;SDS011;7442;50.840;3.396;2022-07-29T10:01:28;10.50;;;2.98;;
14704;SDS011;7442;50.840;3.396;2022-07-29T10:04:21;5.55;;;2.70;;
14704;SDS011;7442;50.840;3.396;2022-07-29T10:07:08;5.92;;;2.20;;
14704;SDS011;7442;50.840;3.396;2022-07-29T10:09:56;7.95;;;2.10;;
14704;SDS011;7442;50.840;3.396;2022-07-29T10:12:55;6.65;;;2.35;;
14704;SDS011;7442;50.840;3.396;2022-07-29T10:15:43;9.18;;;2.20;;
14704;SDS011;7442;50.840;3.396;2022-07-29T10:18:32;4.95;;;1.80;;
14704;SDS011;7442;50.840;3.396;2022-07-29T10:21:19;7.65;;;2.12;;
14704;SDS011;7442;50.840;3.396;2022-07-29T10:24:06;10.58;;;2.65;;
14704;SDS011;7442;50.840;3.396;2022-07-29T10:26:55;10.32;;;2.55;;
14704;SDS011;7442;50.840;3.396;2022-07-29T10:29:43;5.67;;;2.12;;
14704;SDS011;7442;50.840;3.396;2022-07-29T10:36:02;6.95;;;2.08;;
14704;SDS011;7442;50.840;3.396;2022-07-29T10:38:55;6.75;;;1.80;;
14704;SDS011;7442;50.840;3.396;2022-07-29T10:44:41;5.85;;;2.10;;
14704;SDS011;7442;50.840;3.396;2022-07-29T10:47:29;4.65;;;1.80;;
14704;SDS011;7442;50.840;3.396;2022-07-29T10:50:16;3.92;;;1.90;;
14704;SDS011;7442;50.840;3.396;2022-07-29T10:53:04;5.15;;;1.80;;
14704;SDS011;7442;50.840;3.396;2022-07-29T10:55:51;7.87;;;2.22;;
14704;SDS011;7442;50.840;3.396;2022-07-29T10:58:38;8.05;;;2.12;;
14704;SDS011;7442;50.840;3.396;2022-07-29T11:01:28;5.33;;;1.90;;
14704;SDS011;7442;50.840;3.396;2022-07-29T11:04:16;7.62;;;2.33;;
14704;SDS011;7442;50.840;3.396;2022-07-29T11:07:21;6.50;;;2.08;;
14704;SDS011;7442;50.840;3.396;2022-07-29T11:13:03;6.55;;;2.20;;
14704;SDS011;7442;50.840;3.396;2022-07-29T11:15:58;5.10;;;1.98;;
14704;SDS011;7442;50.840;3.396;2022-07-29T11:21:58;4.65;;;1.85;;
14704;SDS011;7442;50.840;3.396;2022-07-29T11:24:45;5.35;;;1.67;;
14704;SDS011;7442;50.840;3.396;2022-07-29T11:27:34;12.40;;;2.00;;
14704;SDS011;7442;50.840;3.396;2022-07-29T11:30:22;8.93;;;2.30;;
14704;SDS011;7442;50.840;3.396;2022-07-29T11:33:31;7.72;;;1.90;;
14704;SDS011;7442;50.840;3.396;2022-07-29T11:36:18;9.83;;;1.67;;
14704;SDS011;7442;50.840;3.396;2022-07-29T11:39:27;4.40;;;1.82;;
14704;SDS011;7442;50.840;3.396;2022-07-29T11:45:20;3.92;;;1.70;;
14704;SDS011;7442;50.840;3.396;2022-07-29T11:48:14;3.30;;;1.70;;
14704;SDS011;7442;50.840;3.396;2022-07-29T11:51:02;5.92;;;1.45;;
14704;SDS011;7442;50.840;3.396;2022-07-29T11:53:51;3.65;;;1.50;;
14704;SDS011;7442;50.840;3.396;2022-07-29T11:56:38;2.00;;;1.52;;
14704;SDS011;7442;50.840;3.396;2022-07-29T11:59:28;3.10;;;1.47;;
14704;SDS011;7442;50.840;3.396;2022-07-29T12:02:16;2.87;;;1.40;;
14704;SDS011;7442;50.840;3.396;2022-07-29T12:05:06;2.72;;;1.32;;
14704;SDS011;7442;50.840;3.396;2022-07-29T12:07:54;5.28;;;1.72;;
14704;SDS011;7442;50.840;3.396;2022-07-29T12:10:44;2.60;;;1.40;;
14704;SDS011;7442;50.840;3.396;2022-07-29T12:13:38;1.87;;;1.22;;
14704;SDS011;7442;50.840;3.396;2022-07-29T12:16:34;4.40;;;1.65;;
14704;SDS011;7442;50.840;3.396;2022-07-29T12:19:23;1.65;;;1.30;;
14704;SDS011;7442;50.840;3.396;2022-07-29T12:22:09;3.02;;;1.02;;
14704;SDS011;7442;50.840;3.396;2022-07-29T12:25:00;2.77;;;1.40;;
14704;SDS011;7442;50.840;3.396;2022-07-29T12:27:47;1.95;;;1.22;;
14704;SDS011;7442;50.840;3.396;2022-07-29T12:30:50;3.22;;;1.45;;
14704;SDS011;7442;50.840;3.396;2022-07-29T12:33:37;2.08;;;1.42;;
14704;SDS011;7442;50.840;3.396;2022-07-29T12:36:23;3.00;;;1.42;;
14704;SDS011;7442;50.840;3.396;2022-07-29T12:39:10;4.17;;;1.80;;
14704;SDS011;7442;50.840;3.396;2022-07-29T12:41:56;1.75;;;1.30;;
14704;SDS011;7442;50.840;3.396;2022-07-29T12:44:43;3.60;;;1.55;;
14704;SDS011;7442;50.840;3.396;2022-07-29T12:47:31;4.08;;;1.22;;
14704;SDS011;7442;50.840;3.396;2022-07-29T12:50:24;1.95;;;1.20;;
14704;SDS011;7442;50.840;3.396;2022-07-29T12:53:11;1.95;;;1.35;;
14704;SDS011;7442;50.840;3.396;2022-07-29T12:55:58;1.67;;;1.27;;
14704;SDS011;7442;50.840;3.396;2022-07-29T12:58:48;1.75;;;1.22;;
14704;SDS011;7442;50.840;3.396;2022-07-29T13:01:36;4.35;;;1.70;;
14704;SDS011;7442;50.840;3.396;2022-07-29T13:04:29;4.72;;;1.82;;
14704;SDS011;7442;50.840;3.396;2022-07-29T13:07:17;1.75;;;1.30;;
14704;SDS011;7442;50.840;3.396;2022-07-29T13:10:14;3.72;;;1.60;;
14704;SDS011;7442;50.840;3.396;2022-07-29T13:16:04;2.55;;;1.30;;
14704;SDS011;7442;50.840;3.396;2022-07-29T13:18:40;3.02;;;1.77;;
14704;SDS011;7442;50.840;3.396;2022-07-29T13:21:26;4.35;;;1.80;;
14704;SDS011;7442;50.840;3.396;2022-07-29T13:24:12;2.33;;;1.40;;
14704;SDS011;7442;50.840;3.396;2022-07-29T13:26:59;1.67;;;1.35;;
14704;SDS011;7442;50.840;3.396;2022-07-29T13:29:46;3.12;;;1.20;;
14704;SDS011;7442;50.840;3.396;2022-07-29T13:32:34;4.15;;;1.55;;
14704;SDS011;7442;50.840;3.396;2022-07-29T13:35:21;1.85;;;1.40;;
14704;SDS011;7442;50.840;3.396;2022-07-29T13:38:08;3.45;;;1.60;;
14704;SDS011;7442;50.840;3.396;2022-07-29T13:40:55;2.12;;;1.50;;
14704;SDS011;7442;50.840;3.396;2022-07-29T13:43:41;3.52;;;1.30;;
14704;SDS011;7442;50.840;3.396;2022-07-29T13:46:27;2.60;;;1.52;;
14704;SDS011;7442;50.840;3.396;2022-07-29T13:49:14;1.90;;;1.42;;
14704;SDS011;7442;50.840;3.396;2022-07-29T13:52:00;2.22;;;1.57;;
14704;SDS011;7442;50.840;3.396;2022-07-29T13:54:47;1.98;;;1.27;;
14704;SDS011;7442;50.840;3.396;2022-07-29T13:57:33;3.45;;;1.65;;
14704;SDS011;7442;50.840;3.396;2022-07-29T14:00:23;2.20;;;1.60;;
14704;SDS011;7442;50.840;3.396;2022-07-29T14:03:11;1.52;;;1.30;;
14704;SDS011;7442;50.840;3.396;2022-07-29T14:05:58;2.62;;;1.32;;
14704;SDS011;7442;50.840;3.396;2022-07-29T14:08:48;2.70;;;1.50;;
14704;SDS011;7442;50.840;3.396;2022-07-29T14:11:35;4.40;;;1.40;;
14704;SDS011;7442;50.840;3.396;2022-07-29T14:14:23;1.95;;;1.50;;
14704;SDS011;7442;50.840;3.396;2022-07-29T14:17:09;2.58;;;1.62;;
14704;SDS011;7442;50.840;3.396;2022-07-29T14:19:55;3.10;;;1.50;;
14704;SDS011;7442;50.840;3.396;2022-07-29T14:22:42;3.17;;;1.50;;
14704;SDS011;7442;50.840;3.396;2022-07-29T14:25:28;2.85;;;1.40;;
14704;SDS011;7442;50.840;3.396;2022-07-29T14:28:14;1.82;;;1.30;;
14704;SDS011;7442;50.840;3.396;2022-07-29T14:31:01;3.25;;;1.45;;
14704;SDS011;7442;50.840;3.396;2022-07-29T14:33:47;2.70;;;1.40;;
14704;SDS011;7442;50.840;3.396;2022-07-29T14:36:34;4.17;;;1.62;;
14704;SDS011;7442;50.840;3.396;2022-07-29T14:39:21;2.25;;;1.45;;
14704;SDS011;7442;50.840;3.396;2022-07-29T14:42:08;3.02;;;1.40;;
14704;SDS011;7442;50.840;3.396;2022-07-29T14:44:55;3.67;;;1.75;;
14704;SDS011;7442;50.840;3.396;2022-07-29T14:47:42;2.62;;;1.50;;
14704;SDS011;7442;50.840;3.396;2022-07-29T14:50:28;4.45;;;1.70;;
14704;SDS011;7442;50.840;3.396;2022-07-29T14:53:15;2.87;;;1.42;;
14704;SDS011;7442;50.840;3.396;2022-07-29T14:56:01;1.57;;;1.20;;
14704;SDS011;7442;50.840;3.396;2022-07-29T14:58:48;2.45;;;1.35;;
14704;SDS011;7442;50.840;3.396;2022-07-29T15:01:35;2.45;;;1.40;;
14704;SDS011;7442;50.840;3.396;2022-07-29T15:04:21;2.10;;;1.37;;
14704;SDS011;7442;50.840;3.396;2022-07-29T15:07:07;3.22;;;1.55;;
14704;SDS011;7442;50.840;3.396;2022-07-29T15:09:54;2.67;;;1.70;;
14704;SDS011;7442;50.840;3.396;2022-07-29T15:12:40;1.80;;;1.27;;
14704;SDS011;7442;50.840;3.396;2022-07-29T15:15:27;2.58;;;1.40;;
14704;SDS011;7442;50.840;3.396;2022-07-29T15:18:13;2.47;;;1.50;;
14704;SDS011;7442;50.840;3.396;2022-07-29T15:21:00;3.92;;;1.60;;
14704;SDS011;7442;50.840;3.396;2022-07-29T15:23:46;1.82;;;1.45;;
14704;SDS011;7442;50.840;3.396;2022-07-29T15:26:33;4.10;;;1.40;;
14704;SDS011;7442;50.840;3.396;2022-07-29T15:29:20;1.98;;;1.40;;
14704;SDS011;7442;50.840;3.396;2022-07-29T15:32:06;6.28;;;1.90;;
14704;SDS011;7442;50.840;3.396;2022-07-29T15:34:53;7.05;;;2.00;;
14704;SDS011;7442;50.840;3.396;2022-07-29T15:37:40;2.87;;;1.90;;
14704;SDS011;7442;50.840;3.396;2022-07-29T15:40:26;6.00;;;1.67;;
14704;SDS011;7442;50.840;3.396;2022-07-29T15:43:13;5.67;;;1.80;;
14704;SDS011;7442;50.840;3.396;2022-07-29T15:46:00;4.72;;;1.60;;
14704;SDS011;7442;50.840;3.396;2022-07-29T15:48:58;10.58;;;1.90;;
14704;SDS011;7442;50.840;3.396;2022-07-29T15:51:44;7.62;;;1.80;;
14704;SDS011;7442;50.840;3.396;2022-07-29T15:54:31;3.55;;;1.80;;
14704;SDS011;7442;50.840;3.396;2022-07-29T15:57:19;4.95;;;1.75;;
14704;SDS011;7442;50.840;3.396;2022-07-29T16:00:05;6.40;;;1.80;;
14704;SDS011;7442;50.840;3.396;2022-07-29T16:02:53;5.22;;;1.80;;
14704;SDS011;7442;50.840;3.396;2022-07-29T16:05:39;5.30;;;2.37;;
14704;SDS011;7442;50.840;3.396;2022-07-29T16:08:26;7.90;;;2.00;;
14704;SDS011;7442;50.840;3.396;2022-07-29T16:11:12;6.40;;;1.80;;
14704;SDS011;7442;50.840;3.396;2022-07-29T16:13:58;3.95;;;1.60;;
14704;SDS011;7442;50.840;3.396;2022-07-29T16:16:45;4.95;;;2.00;;
14704;SDS011;7442;50.840;3.396;2022-07-29T16:19:31;6.72;;;2.10;;
14704;SDS011;7442;50.840;3.396;2022-07-29T16:22:18;6.25;;;1.90;;
14704;SDS011;7442;50.840;3.396;2022-07-29T16:25:05;3.33;;;1.45;;
14704;SDS011;7442;50.840;3.396;2022-07-29T16:27:52;4.35;;;1.70;;
14704;SDS011;7442;50.840;3.396;2022-07-29T16:30:45;4.15;;;1.70;;
14704;SDS011;7442;50.840;3.396;2022-07-29T16:33:31;4.25;;;1.85;;
14704;SDS011;7442;50.840;3.396;2022-07-29T16:36:18;5.53;;;1.80;;
14704;SDS011;7442;50.840;3.396;2022-07-29T16:39:06;3.30;;;1.80;;
14704;SDS011;7442;50.840;3.396;2022-07-29T16:41:54;3.67;;;1.57;;
14704;SDS011;7442;50.840;3.396;2022-07-29T16:44:40;4.55;;;2.02;;
14704;SDS011;7442;50.840;3.396;2022-07-29T16:47:27;9.90;;;2.10;;
14704;SDS011;7442;50.840;3.396;2022-07-29T16:50:20;2.77;;;1.65;;
14704;SDS011;7442;50.840;3.396;2022-07-29T16:53:14;4.15;;;1.67;;
14704;SDS011;7442;50.840;3.396;2022-07-29T16:56:00;4.37;;;1.82;;
14704;SDS011;7442;50.840;3.396;2022-07-29T16:58:46;4.75;;;1.75;;
14704;SDS011;7442;50.840;3.396;2022-07-29T17:01:33;4.75;;;1.85;;
14704;SDS011;7442;50.840;3.396;2022-07-29T17:04:21;8.30;;;1.70;;
14704;SDS011;7442;50.840;3.396;2022-07-29T17:07:07;6.97;;;2.02;;
14704;SDS011;7442;50.840;3.396;2022-07-29T17:09:55;3.45;;;1.62;;
14704;SDS011;7442;50.840;3.396;2022-07-29T17:12:42;4.47;;;2.02;;
14704;SDS011;7442;50.840;3.396;2022-07-29T17:15:30;4.30;;;1.60;;
14704;SDS011;7442;50.840;3.396;2022-07-29T17:18:17;4.60;;;2.00;;
14704;SDS011;7442;50.840;3.396;2022-07-29T17:21:03;5.22;;;1.67;;
14704;SDS011;7442;50.840;3.396;2022-07-29T17:23:49;6.15;;;1.62;;
14704;SDS011;7442;50.840;3.396;2022-07-29T17:26:36;5.28;;;1.80;;
14704;SDS011;7442;50.840;3.396;2022-07-29T17:29:23;3.30;;;1.67;;
14704;SDS011;7442;50.840;3.396;2022-07-29T17:32:13;5.12;;;2.17;;
14704;SDS011;7442;50.840;3.396;2022-07-29T17:35:00;4.78;;;1.85;;
14704;SDS011;7442;50.840;3.396;2022-07-29T17:37:47;4.28;;;1.62;;
14704;SDS011;7442;50.840;3.396;2022-07-29T17:40:33;4.60;;;1.90;;
14704;SDS011;7442;50.840;3.396;2022-07-29T17:43:19;6.42;;;1.87;;
14704;SDS011;7442;50.840;3.396;2022-07-29T17:46:06;6.72;;;2.00;;
14704;SDS011;7442;50.840;3.396;2022-07-29T17:48:58;5.15;;;2.10;;
14704;SDS011;7442;50.840;3.396;2022-07-29T17:51:47;4.00;;;1.70;;
14704;SDS011;7442;50.840;3.396;2022-07-29T17:54:33;4.00;;;1.82;;